Time;durP1;ratioP1;P1;durP2;ratioP2;P2;SDS_P1;SDS_P2;PMS_P1;PMS_P2;Temp;Humidity;BMP_temperature;BMP_pressure;BME280_temperature;BME280_humidity;BME280_pressure;Samples;Min_cycle;Max_cycle;Signal;HPM_P1;HPM_P2
2023/01/13 00:00:51;;;;;;;;;;;9.90;99.90;;;;;;5016194;28;19921;-58
2023/01/13 00:03:17;;;;;;;;;;;9.90;99.90;;;;;;5016498;28;19921;-59
2023/01/13 00:05:44;;;;;;;;;;;9.90;99.90;;;;;;5016101;28;20380;-58
2023/01/13 00:08:10;;;;;;;;;;;9.90;99.90;;;;;;5016423;28;19921;-57
2023/01/13 00:10:37;;;;;;;;;;;9.90;99.90;;;;;;5016223;28;19922;-55
2023/01/13 00:13:05;;;;;;;;;;;9.90;99.90;;;;;;5024020;28;19921;-55
2023/01/13 00:15:31;;;;;;;;;;;9.80;99.90;;;;;;5035349;28;19921;-54
2023/01/13 00:17:58;;;;;;;;;;;9.90;99.90;;;;;;5035722;28;20391;-53
2023/01/13 00:20:25;;;;;;;;;;;9.80;99.90;;;;;;5035884;28;20334;-57
2023/01/13 00:22:51;;;;;;;;;;;9.80;99.90;;;;;;5035566;28;19921;-55
2023/01/13 00:25:18;;;;;;;;;;;9.80;99.90;;;;;;5035689;28;19967;-56
2023/01/13 00:27:44;;;;;;;;;;;9.70;99.90;;;;;;5035428;28;20307;-58
2023/01/13 00:30:13;;;;;;;;;;;9.70;99.90;;;;;;5035434;28;19928;-58
2023/01/13 00:32:39;;;;;;;;;;;9.70;99.90;;;;;;5035850;28;19925;-58
2023/01/13 00:35:06;;;;;;;;;;;9.70;99.90;;;;;;5035294;28;20356;-57
2023/01/13 00:37:35;;;;;;;;;;;9.70;99.90;;;;;;5035126;28;19967;-58
2023/01/13 00:40:01;;;;;;;;;;;9.60;99.90;;;;;;5035340;28;19921;-58
2023/01/13 00:45:13;;;;;;;;;;;9.60;99.90;;;;;;5018547;28;20011;-57
2023/01/13 00:47:40;;;;;;;;;;;9.60;99.90;;;;;;5015338;28;19925;-58
2023/01/13 00:50:06;;;;;;;;;;;9.60;99.90;;;;;;5015245;28;19926;-58
2023/01/13 00:52:33;;;;;;;;;;;9.60;99.90;;;;;;5015324;28;19949;-58
2023/01/13 00:55:00;;;;;;;;;;;9.60;99.90;;;;;;5014993;28;19925;-58
2023/01/13 00:57:27;;;;;;;;;;;9.60;99.90;;;;;;5014953;28;19925;-58
2023/01/13 00:59:53;;;;;;;;;;;9.60;99.90;;;;;;5014665;28;19975;-59
2023/01/13 01:02:21;;;;;;;;;;;9.60;99.90;;;;;;5014570;28;19979;-58
2023/01/13 01:04:48;;;;;;;;;;;9.60;99.90;;;;;;5015365;28;19932;-58
2023/01/13 01:07:14;;;;;;;;;;;9.60;99.90;;;;;;5014895;28;19925;-58
2023/01/13 01:09:41;;;;;;;;;;;9.60;99.90;;;;;;5015119;28;19921;-57
2023/01/13 01:12:07;;;;;;;;;;;9.50;99.90;;;;;;5022577;28;20395;-58
2023/01/13 01:14:34;;;;;;;;;;;9.50;99.90;;;;;;5026513;28;19928;-58
2023/01/13 01:17:01;;;;;;;;;;;9.50;99.90;;;;;;5034441;28;19975;-58
2023/01/13 01:19:29;;;;;;;;;;;9.50;99.90;;;;;;5034570;28;20508;-56
2023/01/13 01:21:56;;;;;;;;;;;9.40;99.90;;;;;;5034379;28;19925;-58
2023/01/13 01:24:22;;;;;;;;;;;9.40;99.90;;;;;;5034469;28;19970;-58
2023/01/13 01:26:49;;;;;;;;;;;9.40;99.90;;;;;;5034400;28;20285;-59
2023/01/13 01:29:15;;;;;;;;;;;9.40;99.90;;;;;;5034737;28;19925;-57
2023/01/13 01:31:42;;;;;;;;;;;9.40;99.90;;;;;;5034416;28;19971;-59
2023/01/13 01:34:09;;;;;;;;;;;9.30;99.90;;;;;;5034201;28;19972;-58
2023/01/13 01:36:37;;;;;;;;;;;9.30;99.90;;;;;;5033758;28;20438;-57
2023/01/13 01:39:04;;;;;;;;;;;9.30;99.90;;;;;;5034008;28;19975;-59
2023/01/13 01:41:31;;;;;;;;;;;9.30;99.90;;;;;;5031394;28;19925;-58
2023/01/13 01:43:58;;;;;;;;;;;9.30;99.90;;;;;;5022657;28;19921;-55
2023/01/13 01:46:25;;;;;;;;;;;9.40;99.90;;;;;;5014365;28;20340;-58
2023/01/13 01:48:52;;;;;;;;;;;9.30;99.90;;;;;;5014153;28;19921;-55
2023/01/13 01:51:19;;;;;;;;;;;9.30;99.90;;;;;;5014478;28;19953;-57
2023/01/13 01:53:47;;;;;;;;;;;9.40;99.90;;;;;;5014628;28;19976;-58
2023/01/13 01:56:15;;;;;;;;;;;9.30;99.90;;;;;;5014276;28;20343;-59
2023/01/13 01:58:46;;;;;;;;;;;9.30;99.90;;;;;;5014373;28;20351;-56
2023/01/13 02:01:13;;;;;;;;;;;9.30;99.90;;;;;;5014033;28;19921;-56
2023/01/13 02:03:43;;;;;;;;;;;9.30;99.90;;;;;;5014445;28;19925;-58
2023/01/13 02:06:09;;;;;;;;;;;9.40;99.90;;;;;;5013944;28;20327;-58
2023/01/13 02:08:37;;;;;;;;;;;9.30;99.90;;;;;;5014174;28;19925;-58
2023/01/13 02:12:28;;;;;;;;;;;9.30;99.90;;;;;;5013725;28;19921;-58
2023/01/13 02:13:52;;;;;;;;;;;9.40;99.90;;;;;;5025058;28;19920;-58
2023/01/13 02:16:23;;;;;;;;;;;9.30;99.90;;;;;;5033170;28;20279;-58
2023/01/13 02:18:53;;;;;;;;;;;9.40;99.90;;;;;;5033675;28;19927;-58
2023/01/13 02:21:38;;;;;;;;;;;9.40;99.90;;;;;;5033359;28;19925;-58
2023/01/13 02:27:36;;;;;;;;;;;9.20;99.90;;;;;;5033157;28;20295;-56
2023/01/13 02:33:03;;;;;;;;;;;9.10;99.90;;;;;;5033171;28;20379;-57
2023/01/13 02:35:32;;;;;;;;;;;9.10;99.90;;;;;;5033054;28;19967;-58
2023/01/13 02:38:00;;;;;;;;;;;9.10;99.90;;;;;;5032855;28;20289;-59
2023/01/13 02:40:28;;;;;;;;;;;9.00;99.90;;;;;;5032698;28;19925;-59
2023/01/13 02:45:46;;;;;;;;;;;9.00;99.90;;;;;;4993447;28;19928;-59
2023/01/13 02:48:13;;;;;;;;;;;9.00;99.90;;;;;;4993331;28;19933;-58
2023/01/13 02:50:43;;;;;;;;;;;8.90;99.90;;;;;;4993417;28;19949;-59
2023/01/13 02:53:12;;;;;;;;;;;8.90;99.90;;;;;;4993635;28;19922;-58
2023/01/13 02:55:40;;;;;;;;;;;8.90;99.90;;;;;;4993323;28;19925;-59
2023/01/13 02:58:08;;;;;;;;;;;8.80;99.90;;;;;;4993180;28;20597;-59
2023/01/13 03:00:35;;;;;;;;;;;8.80;99.90;;;;;;4993350;28;19984;-58
2023/01/13 03:03:03;;;;;;;;;;;8.70;99.90;;;;;;4993369;28;20439;-59
2023/01/13 03:05:32;;;;;;;;;;;8.60;99.90;;;;;;4993425;28;19932;-58
2023/01/13 03:08:19;;;;;;;;;;;8.60;99.90;;;;;;4993077;28;19968;-58
2023/01/13 03:11:01;;;;;;;;;;;8.40;99.90;;;;;;4991074;28;20045;-58
2023/01/13 03:13:37;;;;;;;;;;;8.40;99.90;;;;;;5021296;28;20311;-57
2023/01/13 03:16:08;;;;;;;;;;;8.30;99.90;;;;;;5032203;28;19920;-58
2023/01/13 03:18:41;;;;;;;;;;;8.20;99.90;;;;;;5033130;28;19921;-56
2023/01/13 03:21:09;;;;;;;;;;;8.10;99.90;;;;;;5032475;28;19921;-55
2023/01/13 03:23:39;;;;;;;;;;;8.00;99.90;;;;;;5031965;28;19921;-57
2023/01/13 03:26:08;;;;;;;;;;;8.00;99.90;;;;;;5032333;28;19928;-53
2023/01/13 03:28:39;;;;;;;;;;;7.90;99.90;;;;;;5032526;28;19929;-54
2023/01/13 03:31:08;;;;;;;;;;;7.90;99.90;;;;;;5032219;28;19927;-57
2023/01/13 03:33:36;;;;;;;;;;;7.90;99.90;;;;;;5032336;28;19975;-52
2023/01/13 03:36:07;;;;;;;;;;;7.80;99.90;;;;;;5032189;28;19925;-55
2023/01/13 03:38:36;;;;;;;;;;;7.80;99.90;;;;;;5032321;28;19924;-59
2023/01/13 03:41:05;;;;;;;;;;;7.80;99.90;;;;;;5032063;28;19921;-59
2023/01/13 03:46:29;;;;;;;;;;;7.70;99.90;;;;;;5012595;28;19925;-58
2023/01/13 03:48:57;;;;;;;;;;;7.70;99.90;;;;;;5012688;28;19921;-56
2023/01/13 03:51:27;;;;;;;;;;;7.60;99.90;;;;;;5012399;28;20392;-57
2023/01/13 03:53:55;;;;;;;;;;;7.60;99.90;;;;;;5012560;28;19925;-56
2023/01/13 03:56:24;;;;;;;;;;;7.50;99.90;;;;;;5012033;28;19921;-55
2023/01/13 03:58:52;;;;;;;;;;;7.50;99.90;;;;;;5012266;28;20380;-58
2023/01/13 04:01:21;;;;;;;;;;;7.40;99.90;;;;;;5012410;28;19946;-54
2023/01/13 04:03:50;;;;;;;;;;;7.40;99.90;;;;;;5012365;28;20340;-58
2023/01/13 04:06:23;;;;;;;;;;;7.50;99.90;;;;;;5012089;28;19928;-56
2023/01/13 04:08:52;;;;;;;;;;;7.50;99.90;;;;;;5011972;28;19976;-59
2023/01/13 04:11:21;;;;;;;;;;;7.40;99.90;;;;;;5013400;28;19979;-53
2023/01/13 04:13:49;;;;;;;;;;;7.40;99.90;;;;;;5023906;28;19975;-56
2023/01/13 04:16:15;;;;;;;;;;;7.50;99.90;;;;;;5031522;28;19947;-58
2023/01/13 04:18:42;;;;;;;;;;;7.50;99.90;;;;;;5032072;28;19991;-58
2023/01/13 04:21:08;;;;;;;;;;;7.50;99.90;;;;;;5031589;28;19967;-58
2023/01/13 04:23:35;;;;;;;;;;;7.50;99.90;;;;;;5031502;28;19931;-58
2023/01/13 04:26:03;;;;;;;;;;;7.50;99.90;;;;;;5031473;28;19921;-56
2023/01/13 04:28:30;;;;;;;;;;;7.50;99.90;;;;;;5032127;28;19921;-58
2023/01/13 04:30:56;;;;;;;;;;;7.50;99.90;;;;;;5031745;28;19921;-55
2023/01/13 04:33:23;;;;;;;;;;;7.50;99.90;;;;;;5013499;28;19921;-56
2023/01/13 04:35:51;;;;;;;;;;;7.40;99.90;;;;;;5013760;28;19921;-52
2023/01/13 04:38:19;;;;;;;;;;;7.40;99.90;;;;;;5015269;28;19976;-58
2023/01/13 04:40:45;;;;;;;;;;;7.40;99.90;;;;;;5015216;28;20434;-56
2023/01/13 04:43:14;;;;;;;;;;;7.50;99.90;;;;;;5023598;28;19967;-55
2023/01/13 04:45:41;;;;;;;;;;;7.50;99.90;;;;;;5035124;28;20418;-56
2023/01/13 04:48:07;;;;;;;;;;;7.60;99.90;;;;;;5034944;28;19925;-58
2023/01/13 04:50:34;;;;;;;;;;;7.60;99.90;;;;;;5035117;28;19921;-55
2023/01/13 04:53:01;;;;;;;;;;;7.60;99.90;;;;;;5035003;28;20395;-56
2023/01/13 04:55:27;;;;;;;;;;;7.60;99.90;;;;;;5035270;28;20462;-57
2023/01/13 04:57:54;;;;;;;;;;;7.60;99.90;;;;;;5034926;28;19921;-53
2023/01/13 05:00:23;;;;;;;;;;;7.70;99.90;;;;;;5034983;28;19925;-58
2023/01/13 05:02:49;;;;;;;;;;;7.60;99.90;;;;;;5034990;28;20011;-53
2023/01/13 05:05:16;;;;;;;;;;;7.70;99.90;;;;;;5035074;28;19920;-57
2023/01/13 05:07:43;;;;;;;;;;;7.70;99.90;;;;;;5034717;28;19971;-56
2023/01/13 05:10:10;;;;;;;;;;;7.70;99.90;;;;;;5034738;28;20373;-57
2023/01/13 05:18:06;;;;;;;;;;;7.70;99.90;;;;;;5014709;28;19929;-57
2023/01/13 05:20:33;;;;;;;;;;;7.70;99.90;;;;;;5014660;28;20014;-58
2023/01/13 05:25:44;;;;;;;;;;;7.80;99.90;;;;;;5014756;28;20395;-52
2023/01/13 05:28:10;;;;;;;;;;;7.80;99.90;;;;;;5014988;28;19936;-57
2023/01/13 05:30:41;;;;;;;;;;;7.80;99.90;;;;;;5014723;28;19921;-59
2023/01/13 05:33:07;;;;;;;;;;;7.80;99.90;;;;;;5015033;28;19922;-58
2023/01/13 05:35:34;;;;;;;;;;;7.80;99.90;;;;;;5014643;28;19967;-58
2023/01/13 05:38:01;;;;;;;;;;;7.80;99.90;;;;;;5015242;28;19995;-57
2023/01/13 05:43:23;;;;;;;;;;;7.70;99.90;;;;;;4990999;28;20004;-58
2023/01/13 05:45:52;;;;;;;;;;;7.70;99.90;;;;;;5007258;28;19921;-57
2023/01/13 05:48:19;;;;;;;;;;;7.70;99.90;;;;;;5012172;28;19921;-59
2023/01/13 05:50:46;;;;;;;;;;;7.70;99.90;;;;;;5021373;28;19921;-57
2023/01/13 05:53:13;;;;;;;;;;;7.70;99.90;;;;;;5029987;28;21194;-58
2023/01/13 05:55:40;;;;;;;;;;;7.60;99.90;;;;;;5033547;28;19920;-58
2023/01/13 05:58:07;;;;;;;;;;;7.60;99.90;;;;;;5027467;28;20281;-58
2023/01/13 06:00:33;;;;;;;;;;;7.50;99.90;;;;;;5021239;28;19921;-56
2023/01/13 06:03:01;;;;;;;;;;;7.50;99.90;;;;;;5021608;28;19921;-57
2023/01/13 06:05:28;;;;;;;;;;;7.50;99.90;;;;;;5013070;28;20007;-58
2023/01/13 06:07:56;;;;;;;;;;;7.50;99.90;;;;;;5014219;28;20373;-56
2023/01/13 06:10:22;;;;;;;;;;;7.60;99.90;;;;;;5022740;28;19921;-58
2023/01/13 06:12:49;;;;;;;;;;;7.60;99.90;;;;;;5024858;28;20629;-58
2023/01/13 06:15:15;;;;;;;;;;;7.60;99.90;;;;;;5015725;28;19921;-55
2023/01/13 06:17:42;;;;;;;;;;;7.50;99.90;;;;;;5016619;28;19967;-58
2023/01/13 06:20:10;;;;;;;;;;;7.60;99.90;;;;;;5024520;28;19928;-57
2023/01/13 06:22:38;;;;;;;;;;;7.60;99.90;;;;;;5023948;28;19967;-58
2023/01/13 06:25:07;;;;;;;;;;;7.60;99.90;;;;;;5017028;28;19921;-58
2023/01/13 06:27:34;;;;;;;;;;;7.70;99.90;;;;;;5016396;28;19921;-56
2023/01/13 06:30:00;;;;;;;;;;;7.70;99.90;;;;;;5020977;28;19971;-58
2023/01/13 06:32:29;;;;;;;;;;;7.70;99.90;;;;;;5016753;28;19921;-58
2023/01/13 06:34:58;;;;;;;;;;;7.80;99.90;;;;;;5023286;28;19978;-64
2023/01/13 06:37:27;;;;;;;;;;;7.80;99.90;;;;;;5022026;28;19921;-61
2023/01/13 06:39:56;;;;;;;;;;;7.70;99.90;;;;;;5021316;28;19968;-63
2023/01/13 06:45:07;;;;;;;;;;;7.70;99.90;;;;;;5028624;28;19924;-64
2023/01/13 06:47:34;;;;;;;;;;;7.60;99.90;;;;;;5020929;28;20312;-64
2023/01/13 06:50:01;;;;;;;;;;;7.50;99.90;;;;;;5012481;28;19929;-66
2023/01/13 06:52:29;;;;;;;;;;;7.50;99.90;;;;;;5015175;28;19921;-62
2023/01/13 06:54:56;;;;;;;;;;;7.50;99.90;;;;;;5023970;28;19921;-63
2023/01/13 06:57:22;;;;;;;;;;;7.30;99.90;;;;;;5022494;28;19921;-62
2023/01/13 06:59:49;;;;;;;;;;;7.30;99.90;;;;;;5011808;28;19976;-64
2023/01/13 07:02:15;;;;;;;;;;;7.40;99.90;;;;;;5012759;28;19921;-63
2023/01/13 07:04:43;;;;;;;;;;;7.30;99.90;;;;;;5012825;28;19925;-63
2023/01/13 07:07:11;;;;;;;;;;;7.30;99.90;;;;;;5011843;28;20442;-63
2023/01/13 07:09:39;;;;;;;;;;;7.40;99.90;;;;;;5012626;28;20359;-60
2023/01/13 07:12:06;;;;;;;;;;;7.30;99.90;;;;;;5019125;28;20388;-63
2023/01/13 07:17:23;;;;;;;;;;;7.40;99.90;;;;;;5031694;28;19943;-61
2023/01/13 07:19:50;;;;;;;;;;;7.30;99.90;;;;;;5032706;28;19921;-61
2023/01/13 07:22:17;;;;;;;;;;;7.30;99.90;;;;;;5032740;28;19928;-60
2023/01/13 07:24:44;;;;;;;;;;;7.30;99.90;;;;;;5026766;28;19928;-60
2023/01/13 07:27:11;;;;;;;;;;;7.30;99.90;;;;;;5013188;28;19975;-59
2023/01/13 07:29:38;;;;;;;;;;;7.20;99.90;;;;;;5012990;28;19921;-58
2023/01/13 07:32:05;;;;;;;;;;;7.20;99.90;;;;;;5012716;28;19968;-59
2023/01/13 07:34:32;;;;;;;;;;;7.20;99.90;;;;;;5012313;28;19921;-60
2023/01/13 07:36:58;;;;;;;;;;;7.20;99.90;;;;;;5012368;28;19925;-64
2023/01/13 07:39:25;;;;;;;;;;;7.30;99.90;;;;;;5018526;28;19929;-63
2023/01/13 07:44:37;;;;;;;;;;;7.30;99.90;;;;;;5017518;28;19928;-62
2023/01/13 07:47:04;;;;;;;;;;;7.30;99.90;;;;;;5022522;28;19975;-57
2023/01/13 07:49:32;;;;;;;;;;;7.30;99.90;;;;;;5022998;28;20404;-56
2023/01/13 07:51:58;;;;;;;;;;;7.30;99.90;;;;;;5016406;28;19925;-62
2023/01/13 07:54:25;;;;;;;;;;;7.30;99.90;;;;;;5021409;28;19999;-61
2023/01/13 07:56:51;;;;;;;;;;;7.30;99.90;;;;;;5023217;28;19947;-60
2023/01/13 07:59:19;;;;;;;;;;;7.40;99.90;;;;;;5014372;28;19922;-60
2023/01/13 08:01:46;;;;;;;;;;;7.30;99.90;;;;;;5011506;28;19921;-59
2023/01/13 08:04:12;;;;;;;;;;;7.40;99.90;;;;;;5011022;28;19975;-62
2023/01/13 08:06:39;;;;;;;;;;;7.40;99.90;;;;;;5011748;28;19925;-61
2023/01/13 08:09:06;;;;;;;;;;;7.50;99.90;;;;;;5011686;28;19921;-61
2023/01/13 08:11:32;;;;;;;;;;;7.50;99.90;;;;;;5018018;28;19921;-61
2023/01/13 08:13:59;;;;;;;;;;;7.50;99.90;;;;;;5026556;28;19967;-60
2023/01/13 08:16:27;;;;;;;;;;;7.50;99.00;;;;;;5025558;28;19929;-60
2023/01/13 08:18:53;;;;;;;;;;;7.60;95.80;;;;;;5026988;28;19948;-60
2023/01/13 08:21:20;;;;;;;;;;;7.60;99.90;;;;;;5034963;28;19921;-63
2023/01/13 08:23:46;;;;;;;;;;;7.60;98.70;;;;;;5034685;28;20399;-61
2023/01/13 08:26:14;;;;;;;;;;;7.60;99.90;;;;;;5034651;28;20305;-59
2023/01/13 08:28:41;;;;;;;;;;;7.60;99.90;;;;;;5035202;28;19925;-59
2023/01/13 08:31:10;;;;;;;;;;;7.60;87.30;;;;;;5034352;28;19925;-61
2023/01/13 08:33:38;;;;;;;;;;;7.60;89.30;;;;;;5014541;28;19921;-61
2023/01/13 08:36:05;;;;;;;;;;;7.70;76.70;;;;;;5014450;28;19975;-59
2023/01/13 08:38:36;;;;;;;;;;;7.70;84.60;;;;;;5014637;28;19925;-61
2023/01/13 08:41:08;;;;;;;;;;;7.70;83.50;;;;;;5014769;28;20380;-63
2023/01/13 08:43:34;;;;;;;;;;;7.70;90.30;;;;;;5022558;28;19968;-57
2023/01/13 08:46:03;;;;;;;;;;;7.60;89.40;;;;;;5013740;28;19972;-60
2023/01/13 08:48:29;;;;;;;;;;;7.60;84.30;;;;;;5014729;28;20431;-60
2023/01/13 08:51:02;;;;;;;;;;;7.60;90.20;;;;;;5014633;28;20439;-60
2023/01/13 08:53:29;;;;;;;;;;;7.70;89.00;;;;;;5024633;28;20020;-59
2023/01/13 08:55:55;;;;;;;;;;;7.60;96.40;;;;;;5019431;28;19922;-60
2023/01/13 08:58:22;;;;;;;;;;;7.60;90.10;;;;;;5014739;28;19971;-60
2023/01/13 09:00:48;;;;;;;;;;;7.60;91.60;;;;;;5014281;28;19921;-58
2023/01/13 09:03:15;;;;;;;;;;;7.70;88.20;;;;;;5014458;28;20292;-59
2023/01/13 09:05:41;;;;;;;;;;;7.60;77.20;;;;;;5014488;28;19952;-61
2023/01/13 09:08:09;;;;;;;;;;;8.40;92.90;;;;;;5014233;28;19968;-60
2023/01/13 09:10:36;;;;;;;;;;;7.70;91.80;;;;;;5014463;28;19983;-63
2023/01/13 09:13:10;;;;;;;;;;;7.70;88.00;;;;;;5021504;28;19929;-63
2023/01/13 09:15:37;;;;;;;;;;;7.70;93.10;;;;;;5034243;28;19916;-60
2023/01/13 09:18:04;;;;;;;;;;;7.70;91.20;;;;;;5033873;28;20299;-62
2023/01/13 09:20:30;;;;;;;;;;;7.70;99.90;;;;;;5034087;28;20346;-61
2023/01/13 09:22:57;;;;;;;;;;;7.70;98.00;;;;;;5032587;28;20003;-60
2023/01/13 09:25:25;;;;;;;;;;;7.70;97.80;;;;;;5033870;28;19921;-60
2023/01/13 09:27:51;;;;;;;;;;;7.70;88.90;;;;;;5030720;28;19929;-63
2023/01/13 09:30:18;;;;;;;;;;;7.80;89.40;;;;;;5008326;28;19922;-62
2023/01/13 09:32:44;;;;;;;;;;;7.70;92.80;;;;;;5014122;28;19929;-61
2023/01/13 09:35:10;;;;;;;;;;;7.80;96.80;;;;;;5013606;28;19933;-61
2023/01/13 09:37:38;;;;;;;;;;;7.90;86.20;;;;;;5013617;28;19929;-63
2023/01/13 09:40:06;;;;;;;;;;;7.90;92.20;;;;;;5013342;28;19925;-63
2023/01/13 09:45:26;;;;;;;;;;;9.60;92.80;;;;;;5031733;28;19932;-64
2023/01/13 09:47:57;;;;;;;;;;;7.90;89.90;;;;;;5033121;28;19921;-60
2023/01/13 09:50:29;;;;;;;;;;;7.90;92.70;;;;;;5032909;28;19943;-63
2023/01/13 09:52:57;;;;;;;;;;;8.00;91.20;;;;;;5026745;28;20391;-65
2023/01/13 09:55:27;;;;;;;;;;;8.00;87.40;;;;;;5023544;28;19921;-63
2023/01/13 09:57:55;;;;;;;;;;;8.00;89.30;;;;;;5019037;28;19921;-64
2023/01/13 10:00:23;;;;;;;;;;;8.00;89.60;;;;;;5013322;28;19972;-61
2023/01/13 10:03:00;;;;;;;;;;;8.00;87.30;;;;;;5013323;28;19967;-60
2023/01/13 10:05:31;;;;;;;;;;;8.00;82.50;;;;;;5013707;28;19975;-61
2023/01/13 10:07:59;;;;;;;;;;;8.00;86.20;;;;;;5013261;28;19975;-61
2023/01/13 10:10:29;;;;;;;;;;;8.00;74.70;;;;;;5012901;28;20003;-62
2023/01/13 10:13:15;;;;;;;;;;;8.10;71.90;;;;;;5021339;28;19922;-62
2023/01/13 10:15:45;;;;;;;;;;;8.10;80.00;;;;;;5032520;28;19929;-61
2023/01/13 10:18:15;;;;;;;;;;;8.10;73.00;;;;;;5032820;28;19928;-64
2023/01/13 10:20:49;;;;;;;;;;;8.10;75.50;;;;;;5032619;28;19975;-64
2023/01/13 10:23:28;;;;;;;;;;;8.20;67.50;;;;;;5024449;28;20300;-64
2023/01/13 10:26:00;;;;;;;;;;;8.20;49.40;;;;;;5017951;28;20300;-64
2023/01/13 10:28:28;;;;;;;;;;;8.30;44.70;;;;;;5013244;28;19929;-64
2023/01/13 10:30:54;;;;;;;;;;;8.30;37.30;;;;;;5013130;28;19921;-63
2023/01/13 10:33:23;;;;;;;;;;;8.30;38.90;;;;;;5012311;28;19921;-63
2023/01/13 10:35:52;;;;;;;;;;;8.30;37.30;;;;;;5012957;28;19921;-62
2023/01/13 10:38:19;;;;;;;;;;;8.20;29.90;;;;;;5012142;28;20449;-60
2023/01/13 10:40:47;;;;;;;;;;;8.20;46.00;;;;;;5012855;28;19976;-61
2023/01/13 10:43:14;;;;;;;;;;;8.30;29.50;;;;;;5020649;28;19925;-62
2023/01/13 10:45:43;;;;;;;;;;;8.40;50.40;;;;;;5032353;28;19932;-59
2023/01/13 10:48:12;;;;;;;;;;;8.50;31.50;;;;;;5032120;28;20352;-60
2023/01/13 10:50:40;;;;;;;;;;;8.60;17.00;;;;;;5024420;28;20758;-57
2023/01/13 10:53:16;;;;;;;;;;;9.50;14.90;;;;;;5015803;28;19932;-63
2023/01/13 10:55:42;;;;;;;;;;;8.70;21.40;;;;;;5017344;28;19929;-60
2023/01/13 10:58:13;;;;;;;;;;;8.80;7.20;;;;;;5023666;28;19922;-60
2023/01/13 11:00:41;;;;;;;;;;;8.90;2.00;;;;;;5016867;28;20028;-61
2023/01/13 11:03:15;;;;;;;;;;;8.90;1.00;;;;;;5032396;28;20004;-62
2023/01/13 11:05:48;;;;;;;;;;;9.00;1.00;;;;;;5031681;28;19925;-61
2023/01/13 11:08:16;;;;;;;;;;;9.10;1.00;;;;;;5023122;28;19929;-60
2023/01/13 11:10:45;;;;;;;;;;;9.10;1.00;;;;;;5019177;28;20396;-61
2023/01/13 11:13:14;;;;;;;;;;;9.10;1.00;;;;;;5019981;28;20368;-59
2023/01/13 11:15:44;;;;;;;;;;;9.00;1.00;;;;;;5031867;28;19932;-61
2023/01/13 11:18:18;;;;;;;;;;;9.00;1.00;;;;;;5031335;28;20407;-61
2023/01/13 11:20:46;;;;;;;;;;;8.90;1.00;;;;;;5032389;28;19990;-56
2023/01/13 11:23:15;;;;;;;;;;;8.90;1.00;;;;;;5032331;28;19980;-58
2023/01/13 11:25:43;;;;;;;;;;;8.90;1.00;;;;;;5032269;28;19925;-57
2023/01/13 11:28:16;;;;;;;;;;;8.90;1.00;;;;;;5031311;28;19971;-53
2023/01/13 11:30:48;;;;;;;;;;;8.70;4.60;;;;;;5032302;28;19940;-56
2023/01/13 11:33:19;;;;;;;;;;;8.40;96.20;;;;;;5032948;28;20343;-57
2023/01/13 11:35:48;;;;;;;;;;;8.10;99.90;;;;;;5032183;28;19921;-60
2023/01/13 11:38:19;;;;;;;;;;;7.90;99.90;;;;;;5031647;28;19936;-59
2023/01/13 11:40:48;;;;;;;;;;;7.80;99.90;;;;;;5031626;28;20372;-54
2023/01/13 11:43:19;;;;;;;;;;;7.70;99.90;;;;;;5022105;28;19921;-62
2023/01/13 11:45:50;;;;;;;;;;;7.70;99.90;;;;;;5024513;28;20335;-62
2023/01/13 11:48:19;;;;;;;;;;;7.60;99.90;;;;;;5018404;28;19925;-57
2023/01/13 11:50:49;;;;;;;;;;;7.60;99.90;;;;;;5018355;28;19929;-60
2023/01/13 11:53:24;;;;;;;;;;;7.60;99.90;;;;;;5017872;28;19925;-57
2023/01/13 11:55:55;;;;;;;;;;;7.70;99.90;;;;;;5018649;28;19925;-60
2023/01/13 11:58:31;;;;;;;;;;;7.70;99.90;;;;;;5017845;28;19926;-60
2023/01/13 12:01:05;;;;;;;;;;;7.80;99.90;;;;;;5024717;28;19925;-62
2023/01/13 12:03:34;;;;;;;;;;;7.90;99.90;;;;;;5029286;28;19975;-65
2023/01/13 12:06:22;;;;;;;;;;;7.90;99.90;;;;;;5037366;28;19960;-65
2023/01/13 12:08:58;;;;;;;;;;;7.90;99.90;;;;;;5032787;28;19967;-65
2023/01/13 12:11:27;;;;;;;;;;;7.90;99.90;;;;;;5035992;28;20265;-65
2023/01/13 12:14:01;;;;;;;;;;;7.90;99.90;;;;;;5025912;28;19921;-61
2023/01/13 12:16:30;;;;;;;;;;;7.90;99.90;;;;;;5017418;28;19926;-61
2023/01/13 12:19:06;;;;;;;;;;;7.80;99.90;;;;;;5018072;28;20395;-62
2023/01/13 12:21:35;;;;;;;;;;;7.80;99.90;;;;;;5017836;28;20016;-62
2023/01/13 12:24:08;;;;;;;;;;;8.30;99.90;;;;;;5017819;28;19921;-62
2023/01/13 12:26:37;;;;;;;;;;;7.80;99.90;;;;;;5017439;28;19921;-62
2023/01/13 12:29:06;;;;;;;;;;;7.70;99.90;;;;;;5017913;28;19941;-60
2023/01/13 12:31:36;;;;;;;;;;;7.70;99.90;;;;;;5018000;28;19925;-60
2023/01/13 12:34:09;;;;;;;;;;;7.80;99.90;;;;;;5017669;28;19921;-60
2023/01/13 12:36:44;;;;;;;;;;;7.70;99.90;;;;;;5017878;28;19925;-66
2023/01/13 12:39:15;;;;;;;;;;;9.60;99.90;;;;;;5025447;28;19929;-64
2023/01/13 12:44:25;;;;;;;;;;;7.70;99.90;;;;;;5024948;28;20472;-61
2023/01/13 12:46:55;;;;;;;;;;;7.50;99.90;;;;;;5017704;28;19922;-62
2023/01/13 12:49:23;;;;;;;;;;;7.50;99.90;;;;;;5027227;28;19925;-59
2023/01/13 12:52:00;;;;;;;;;;;7.50;99.90;;;;;;5037448;28;20303;-61
2023/01/13 12:54:33;;;;;;;;;;;7.50;99.90;;;;;;5036958;28;19925;-61
2023/01/13 12:57:00;;;;;;;;;;;7.40;99.90;;;;;;5035263;28;19971;-60
2023/01/13 12:59:31;;;;;;;;;;;7.40;99.90;;;;;;5034561;28;19925;-62
2023/01/13 13:02:14;;;;;;;;;;;7.30;99.90;;;;;;5033971;28;19920;-61
2023/01/13 13:04:43;;;;;;;;;;;7.40;99.90;;;;;;5005262;28;19979;-64
2023/01/13 13:07:12;;;;;;;;;;;7.50;99.90;;;;;;5021922;28;19921;-60
2023/01/13 13:09:42;;;;;;;;;;;7.60;99.90;;;;;;5034370;28;19948;-60
2023/01/13 13:15:19;;;;;;;;;;;7.70;99.90;;;;;;5026566;28;19924;-60
2023/01/13 13:18:01;;;;;;;;;;;7.60;99.90;;;;;;5033629;28;19921;-62
2023/01/13 13:20:46;;;;;;;;;;;7.50;99.90;;;;;;5034085;28;20535;-62
2023/01/13 13:23:27;;;;;;;;;;;7.40;99.90;;;;;;5025161;28;20407;-61
2023/01/13 13:26:04;;;;;;;;;;;7.40;99.90;;;;;;5022397;28;20383;-60
2023/01/13 13:28:34;;;;;;;;;;;7.30;99.90;;;;;;5025550;28;19921;-60
2023/01/13 13:31:16;;;;;;;;;;;7.30;99.90;;;;;;5033793;28;20350;-63
2023/01/13 13:33:47;;;;;;;;;;;7.30;99.90;;;;;;5033701;28;19925;-61
2023/01/13 13:36:21;;;;;;;;;;;7.40;99.90;;;;;;5033144;28;20516;-62
2023/01/13 13:47:15;;;;;;;;;;;7.60;99.90;;;;;;5013308;28;19924;-62
2023/01/13 13:49:44;;;;;;;;;;;7.60;99.90;;;;;;5013961;28;19921;-62
2023/01/13 13:52:17;;;;;;;;;;;7.50;99.90;;;;;;5012978;28;19927;-64
2023/01/13 13:54:46;;;;;;;;;;;7.60;99.90;;;;;;5025111;28;19991;-63
2023/01/13 13:57:18;;;;;;;;;;;7.60;99.90;;;;;;5033152;28;19921;-61
2023/01/13 13:59:45;;;;;;;;;;;7.70;99.90;;;;;;5033093;28;19974;-61
2023/01/13 14:02:17;;;;;;;;;;;7.70;99.90;;;;;;5033118;28;19921;-65
2023/01/13 14:04:43;;;;;;;;;;;7.70;99.90;;;;;;5028796;28;20511;-60
2023/01/13 14:07:17;;;;;;;;;;;7.80;99.90;;;;;;5020828;28;19925;-58
2023/01/13 14:09:44;;;;;;;;;;;7.80;99.90;;;;;;5014065;28;19925;-65
2023/01/13 14:12:16;;;;;;;;;;;7.70;99.90;;;;;;5020997;28;19968;-65
2023/01/13 14:14:44;;;;;;;;;;;7.70;99.90;;;;;;5025475;28;19948;-66
2023/01/13 14:17:18;;;;;;;;;;;7.70;99.90;;;;;;5032710;28;20535;-65
2023/01/13 14:19:50;;;;;;;;;;;7.60;99.90;;;;;;5033217;28;19920;-62
2023/01/13 14:22:17;;;;;;;;;;;7.60;99.90;;;;;;5032226;28;19928;-62
2023/01/13 14:24:45;;;;;;;;;;;7.50;99.90;;;;;;5032453;28;19932;-60
2023/01/13 14:27:15;;;;;;;;;;;7.50;99.90;;;;;;5032378;28;19940;-61
2023/01/13 14:29:41;;;;;;;;;;;7.40;99.90;;;;;;5032374;28;20414;-59
2023/01/13 14:32:12;;;;;;;;;;;7.30;99.90;;;;;;5032409;28;19921;-57
2023/01/13 14:34:39;;;;;;;;;;;7.30;99.90;;;;;;5032509;28;19921;-61
2023/01/13 14:37:21;;;;;;;;;;;7.20;99.90;;;;;;5032316;28;19948;-62
2023/01/13 14:39:47;;;;;;;;;;;7.30;99.90;;;;;;5031973;28;19952;-62
2023/01/13 14:42:16;;;;;;;;;;;7.30;99.90;;;;;;5023845;28;19980;-63
2023/01/13 14:44:44;;;;;;;;;;;7.30;99.90;;;;;;5023845;28;19947;-63
2023/01/13 14:47:23;;;;;;;;;;;7.20;99.90;;;;;;5016051;28;20020;-63
2023/01/13 14:49:53;;;;;;;;;;;7.20;99.90;;;;;;5012494;28;20353;-62
2023/01/13 14:52:21;;;;;;;;;;;7.20;99.90;;;;;;5024687;28;19926;-60
2023/01/13 14:54:49;;;;;;;;;;;7.30;99.90;;;;;;5023020;28;19925;-60
2023/01/13 14:57:26;;;;;;;;;;;7.20;99.90;;;;;;5024144;28;19925;-60
2023/01/13 14:59:57;;;;;;;;;;;7.20;99.90;;;;;;5032485;28;19925;-60
2023/01/13 15:02:35;;;;;;;;;;;7.20;99.90;;;;;;5032095;28;20562;-60
2023/01/13 15:05:17;;;;;;;;;;;7.20;99.90;;;;;;5031774;28;19975;-61
2023/01/13 15:07:48;;;;;;;;;;;7.20;99.90;;;;;;5012168;28;19926;-62
2023/01/13 15:10:16;;;;;;;;;;;7.30;99.90;;;;;;5020732;28;19925;-63
2023/01/13 15:12:43;;;;;;;;;;;7.20;99.90;;;;;;5020313;28;20303;-59
2023/01/13 15:15:20;;;;;;;;;;;7.20;99.90;;;;;;5028263;28;19947;-61
2023/01/13 15:17:48;;;;;;;;;;;7.30;99.90;;;;;;5031760;28;19921;-59
2023/01/13 15:20:15;;;;;;;;;;;7.30;99.90;;;;;;5031555;28;19929;-59
2023/01/13 15:22:42;;;;;;;;;;;7.30;99.90;;;;;;5031468;28;20495;-61
2023/01/13 15:25:09;;;;;;;;;;;7.30;99.90;;;;;;5032863;28;19920;-61
2023/01/13 15:27:36;;;;;;;;;;;7.30;99.90;;;;;;5033151;28;20023;-57
2023/01/13 15:30:03;;;;;;;;;;;7.30;99.90;;;;;;5032766;28;19990;-62
2023/01/13 15:32:29;;;;;;;;;;;7.20;99.90;;;;;;5032450;28;19921;-60